createdAt,value
2022-08-10T00:00:58.657Z,39.50
2022-08-10T00:03:26.496Z,39.23
2022-08-10T00:05:56.501Z,39.24
2022-08-10T00:08:25.158Z,39.55
2022-08-10T00:10:53.378Z,39.69
2022-08-10T00:13:21.380Z,39.82
2022-08-10T00:15:55.243Z,39.99
2022-08-10T00:18:31.598Z,39.65
2022-08-10T00:21:04.870Z,39.63
2022-08-10T00:23:32.813Z,39.71
2022-08-10T00:26:00.736Z,39.64
2022-08-10T00:28:28.625Z,39.56
2022-08-10T00:30:56.550Z,40.06
2022-08-10T00:33:25.808Z,39.65
2022-08-10T00:35:54.740Z,40.10
2022-08-10T00:38:22.653Z,40.31
2022-08-10T00:40:50.513Z,39.94
2022-08-10T00:43:23.500Z,40.51
2022-08-10T00:45:58.823Z,40.21
2022-08-10T00:48:30.306Z,40.30
2022-08-10T00:50:58.962Z,40.42
2022-08-10T00:53:27.158Z,40.59
2022-08-10T00:57:15.246Z,40.63
2022-08-10T00:58:43.020Z,40.27
2022-08-10T01:01:10.980Z,40.27
2022-08-10T01:04:39.613Z,40.81
2022-08-10T01:06:52.728Z,40.69
2022-08-10T01:09:22.226Z,40.82
2022-08-10T01:12:39.788Z,40.90
2022-08-10T01:14:43.728Z,40.68
2022-08-10T01:17:13.171Z,40.74
2022-08-10T01:19:50.950Z,41.11
2022-08-10T01:22:39.883Z,41.31
2022-08-10T01:26:10.402Z,41.15
2022-08-10T01:28:33.148Z,41.25
2022-08-10T01:31:02.604Z,41.68
2022-08-10T01:33:58.763Z,41.55
2022-08-10T01:36:32.053Z,41.79
2022-08-10T01:39:01.279Z,41.44
2022-08-10T01:41:45.695Z,41.82
2022-08-10T01:44:15.759Z,41.76
2022-08-10T01:46:48.569Z,41.83
2022-08-10T01:49:18.863Z,42.07
2022-08-10T01:51:47.865Z,42.24
2022-08-10T01:54:17.021Z,42.13
2022-08-10T01:56:46.370Z,42.20
2022-08-10T01:59:17.287Z,42.39
2022-08-10T02:01:49.223Z,42.67
2022-08-10T02:04:18.078Z,42.72
2022-08-10T02:06:46.994Z,42.76
2022-08-10T02:09:16.826Z,42.52
2022-08-10T02:12:05.151Z,42.86
2022-08-10T02:14:34.679Z,43.05
2022-08-10T02:17:05.451Z,42.94
2022-08-10T02:19:33.488Z,42.96
2022-08-10T02:22:36.770Z,43.07
2022-08-10T02:24:49.128Z,43.05
2022-08-10T02:27:17.013Z,43.19
2022-08-10T02:29:44.850Z,43.34
2022-08-10T02:32:28.169Z,43.45
2022-08-10T02:35:08.655Z,43.51
2022-08-10T02:37:48.074Z,43.29
2022-08-10T02:45:14.468Z,43.38
2022-08-10T02:45:17.969Z,43.53
2022-08-10T02:45:57.970Z,43.61
2022-08-10T02:48:32.752Z,43.69
2022-08-10T02:51:02.952Z,43.67
2022-08-10T02:53:55.527Z,43.70
2022-08-10T02:56:22.826Z,43.71
2022-08-10T02:58:54.537Z,43.69
2022-08-10T03:01:24.456Z,43.93
2022-08-10T03:03:59.195Z,43.81
2022-08-10T03:06:28.238Z,43.75
2022-08-10T03:08:56.111Z,43.97
2022-08-10T03:12:34.892Z,43.68
2022-08-10T03:14:13.111Z,43.69
2022-08-10T03:16:40.999Z,43.85
2022-08-10T03:20:36.033Z,43.86
2022-08-10T03:21:58.212Z,43.91
2022-08-10T03:24:32.691Z,43.89
2022-08-10T03:27:01.446Z,43.98
2022-08-10T03:29:29.621Z,44.05
2022-08-10T03:31:57.462Z,43.94
2022-08-10T03:34:33.382Z,44.06
2022-08-10T03:37:01.708Z,44.04
2022-08-10T03:39:30.843Z,43.94
2022-08-10T03:42:00.080Z,44.00
2022-08-10T03:44:29.769Z,44.08
2022-08-10T03:46:57.590Z,44.07
2022-08-10T03:49:26.918Z,44.27
2022-08-10T03:51:54.749Z,44.43
2022-08-10T03:54:24.108Z,44.31
2022-08-10T03:56:51.956Z,44.23
2022-08-10T03:59:19.898Z,44.49
2022-08-10T04:02:44.143Z,44.38
2022-08-10T04:04:37.054Z,44.65
2022-08-10T04:07:05.507Z,44.68
2022-08-10T04:09:53.503Z,44.77
2022-08-10T04:12:22.513Z,44.75
2022-08-10T04:14:52.930Z,44.79
2022-08-10T04:18:03.325Z,44.99
2022-08-10T04:20:15.003Z,45.23
2022-08-10T04:22:43.010Z,45.01
2022-08-10T04:25:10.945Z,45.36
2022-08-10T04:27:38.820Z,45.38
2022-08-10T04:30:07.879Z,45.38
2022-08-10T04:32:36.104Z,45.61
2022-08-10T04:35:04.884Z,45.35
2022-08-10T04:37:34.370Z,45.44
2022-08-10T04:40:02.579Z,45.81
2022-08-10T04:42:30.761Z,45.55
2022-08-10T04:44:59.456Z,45.30
2022-08-10T04:47:57.904Z,45.42
2022-08-10T04:50:15.886Z,45.46
2022-08-10T04:52:47.609Z,45.85
2022-08-10T04:55:15.842Z,45.21
2022-08-10T04:57:44.024Z,45.43
2022-08-10T05:00:18.953Z,45.41
2022-08-10T05:02:47.895Z,45.31
2022-08-10T05:05:16.030Z,45.53
2022-08-10T05:07:51.419Z,45.47
2022-08-10T05:10:24.106Z,45.23
2022-08-10T05:12:52.880Z,44.99
2022-08-10T05:15:23.940Z,45.09
2022-08-10T05:18:08.142Z,44.94
2022-08-10T05:20:37.992Z,44.94
2022-08-10T05:23:05.936Z,45.60
2022-08-10T05:25:37.461Z,45.11
2022-08-10T05:28:06.955Z,44.84
2022-08-10T05:30:35.379Z,44.71
2022-08-10T05:33:08.051Z,43.95
2022-08-10T05:35:56.568Z,44.38
2022-08-10T05:38:26.880Z,43.90
2022-08-10T05:40:56.242Z,44.15
2022-08-10T05:43:24.155Z,44.23
2022-08-10T05:46:17.737Z,43.63
2022-08-10T05:48:59.402Z,43.73
2022-08-10T05:51:28.517Z,43.54
2022-08-10T05:54:00.853Z,43.23
2022-08-10T05:56:54.699Z,42.83
2022-08-10T06:00:10.673Z,43.01
2022-08-10T06:02:30.858Z,42.75
2022-08-10T06:05:01.709Z,41.80
2022-08-10T06:07:29.727Z,41.18
2022-08-10T06:09:59.139Z,40.56
2022-08-10T06:12:31.306Z,39.38
2022-08-10T06:15:05.318Z,38.23
2022-08-10T06:17:34.189Z,37.15
2022-08-10T06:20:02.201Z,36.01
2022-08-10T06:22:32.396Z,36.12
2022-08-10T06:25:27.281Z,36.13
2022-08-10T06:27:50.395Z,34.64
2022-08-10T06:30:20.858Z,34.20
2022-08-10T06:32:49.359Z,32.58
2022-08-10T06:35:17.501Z,32.93
2022-08-10T06:37:50.564Z,32.07
2022-08-10T06:40:19.760Z,31.97
2022-08-10T06:42:48.401Z,31.57
2022-08-10T06:45:18.586Z,29.78
2022-08-10T06:47:48.657Z,29.36
2022-08-10T06:50:34.940Z,29.91
2022-08-10T06:53:07.631Z,29.58
2022-08-10T06:55:55.497Z,27.98
2022-08-10T06:58:26.576Z,27.61
2022-08-10T07:00:56.642Z,27.34
2022-08-10T07:03:27.408Z,27.10
2022-08-10T07:05:55.365Z,26.12
2022-08-10T07:08:23.401Z,26.32
2022-08-10T07:10:51.526Z,26.15
2022-08-10T07:14:16.019Z,25.86
2022-08-10T07:16:12.888Z,25.85
2022-08-10T07:18:41.239Z,25.85
2022-08-10T07:21:10.242Z,25.46
2022-08-10T07:23:58.395Z,25.25
2022-08-10T07:26:26.726Z,24.38
2022-08-10T07:28:54.831Z,24.52
2022-08-10T07:31:31.101Z,23.96
2022-08-10T07:34:28.570Z,24.03
2022-08-10T07:37:00.317Z,23.78
2022-08-10T07:39:57.930Z,22.58
2022-08-10T07:42:21.395Z,22.45
2022-08-10T07:44:50.612Z,22.42
2022-08-10T07:47:52.335Z,22.79
2022-08-10T07:50:17.677Z,22.52
2022-08-10T07:52:45.705Z,21.52
2022-08-10T07:55:16.298Z,21.53
2022-08-10T07:57:44.437Z,21.13
2022-08-10T08:00:13.521Z,21.18
2022-08-10T08:02:46.230Z,21.43
2022-08-10T08:05:27.597Z,20.85
2022-08-10T08:08:02.948Z,20.01
2022-08-10T08:10:31.340Z,20.09
2022-08-10T08:12:59.422Z,20.32
2022-08-10T08:16:18.640Z,20.51
2022-08-10T08:18:23.006Z,21.23
2022-08-10T08:20:54.450Z,19.40
2022-08-10T08:24:30.300Z,20.09
2022-08-10T08:26:12.100Z,19.55
2022-08-10T08:28:45.853Z,19.16
2022-08-10T08:31:13.992Z,18.65
2022-08-10T08:33:43.305Z,18.72
2022-08-10T08:36:11.507Z,19.05
2022-08-10T08:38:39.445Z,18.78
2022-08-10T08:41:19.627Z,18.13
2022-08-10T08:43:50.672Z,18.10
2022-08-10T08:46:58.772Z,17.78
2022-08-10T08:50:07.910Z,17.37
2022-08-10T08:52:40.443Z,17.40
2022-08-10T08:55:55.215Z,17.02
2022-08-10T08:58:09.647Z,16.85
2022-08-10T09:00:42.600Z,16.81
2022-08-10T09:03:32.282Z,16.73
2022-08-10T09:06:07.772Z,16.21
2022-08-10T09:09:04.801Z,14.65
2022-08-10T09:11:42.533Z,15.19
2022-08-10T09:14:17.901Z,15.13
2022-08-10T09:16:58.733Z,14.04
2022-08-10T09:19:36.131Z,14.39
2022-08-10T09:22:18.293Z,14.82
2022-08-10T09:24:59.239Z,13.68
2022-08-10T09:27:33.899Z,12.72
2022-08-10T09:30:06.933Z,12.81
2022-08-10T09:36:15.984Z,12.47
2022-08-10T09:36:22.618Z,13.23
2022-08-10T09:38:30.532Z,12.40
2022-08-10T09:41:04.953Z,12.88
2022-08-10T09:43:43.294Z,13.18
2022-08-10T09:46:16.135Z,11.93
2022-08-10T09:48:47.399Z,12.04
2022-08-10T09:54:22.944Z,10.74
2022-08-10T09:57:17.808Z,11.16
2022-08-10T10:00:01.386Z,10.69
2022-08-10T10:02:36.799Z,11.19
2022-08-10T10:05:09.113Z,11.18
2022-08-10T10:07:40.168Z,11.31
2022-08-10T10:10:13.582Z,10.81
2022-08-10T10:12:46.442Z,11.34
2022-08-10T10:15:24.929Z,11.26
2022-08-10T10:18:19.731Z,11.58
2022-08-10T10:20:54.350Z,10.36
2022-08-10T10:23:27.737Z,10.87
2022-08-10T10:26:04.931Z,10.15
2022-08-10T10:29:19.720Z,9.63
2022-08-10T10:31:31.871Z,10.13
2022-08-10T10:36:42.754Z,9.53
2022-08-10T10:39:10.812Z,9.31
2022-08-10T10:41:56.250Z,9.21
2022-08-10T10:44:41.988Z,9.45
2022-08-10T10:47:29.624Z,9.29
2022-08-10T10:50:04.053Z,8.92
2022-08-10T10:52:40.120Z,8.67
2022-08-10T10:55:14.400Z,9.03
2022-08-10T10:57:58.797Z,8.51
2022-08-10T11:00:31.372Z,8.30
2022-08-10T11:03:10.684Z,9.30
2022-08-10T11:05:55.495Z,8.68
2022-08-10T11:08:28.677Z,8.25
2022-08-10T11:11:02.003Z,7.86
2022-08-10T11:14:25.316Z,8.67
2022-08-10T11:16:26.878Z,8.29
2022-08-10T11:19:00.197Z,8.15
2022-08-10T11:21:41.277Z,8.18
2022-08-10T11:24:47.943Z,8.55
2022-08-10T11:27:03.648Z,9.04
2022-08-10T11:29:34.762Z,9.28
2022-08-10T11:32:04.728Z,9.57
2022-08-10T11:34:49.033Z,9.41
2022-08-10T11:37:29.124Z,8.38
2022-08-10T11:40:19.327Z,9.38
2022-08-10T11:42:51.285Z,9.89
2022-08-10T11:45:22.808Z,10.65
2022-08-10T11:47:52.714Z,10.75
2022-08-10T11:50:24.051Z,12.46
2022-08-10T11:52:58.097Z,13.25
2022-08-10T11:55:26.997Z,13.69
2022-08-10T11:57:58.510Z,14.57
2022-08-10T12:00:32.468Z,14.94
2022-08-10T12:03:03.160Z,15.50
2022-08-10T12:05:54.511Z,16.07
2022-08-10T12:10:02.211Z,16.35
2022-08-10T12:11:23.743Z,16.23
2022-08-10T12:14:19.682Z,16.69
2022-08-10T12:16:46.566Z,17.46
2022-08-10T12:19:16.927Z,17.76
2022-08-10T12:21:46.914Z,18.04
2022-08-10T12:24:20.561Z,18.19
2022-08-10T12:26:53.375Z,18.23
2022-08-10T12:29:27.441Z,18.34
2022-08-10T12:32:00.519Z,18.86
2022-08-10T12:34:31.399Z,19.00
2022-08-10T12:37:05.751Z,18.85
2022-08-10T12:39:36.611Z,19.14
2022-08-10T12:42:06.626Z,18.97
2022-08-10T12:44:41.496Z,18.98
2022-08-10T12:47:17.845Z,19.32
2022-08-10T12:50:30.910Z,19.26
2022-08-10T12:52:41.104Z,19.08
2022-08-10T12:55:09.318Z,19.22
2022-08-10T12:57:37.399Z,19.22
2022-08-10T13:00:06.923Z,19.04
2022-08-10T13:02:49.081Z,19.61
2022-08-10T13:05:17.332Z,19.45
2022-08-10T13:08:24.783Z,19.93
2022-08-10T13:10:34.424Z,19.51
2022-08-10T13:13:02.336Z,19.89
2022-08-10T13:15:50.114Z,19.75
2022-08-10T13:18:27.214Z,20.16
2022-08-10T13:20:56.589Z,20.02
2022-08-10T13:23:26.959Z,20.13
2022-08-10T13:25:56.228Z,19.98
2022-08-10T13:28:36.603Z,20.16
2022-08-10T13:31:08.466Z,20.79
2022-08-10T13:34:41.094Z,20.29
2022-08-10T13:36:35.729Z,20.17
2022-08-10T13:39:03.631Z,20.84
2022-08-10T13:41:33.584Z,20.44
2022-08-10T13:44:01.710Z,19.99
2022-08-10T13:46:29.639Z,20.34
2022-08-10T13:48:59.248Z,20.58
2022-08-10T13:51:53.973Z,20.63
2022-08-10T13:54:19.796Z,20.75
2022-08-10T13:56:48.539Z,20.54
2022-08-10T13:59:16.642Z,21.00
2022-08-10T14:01:48.394Z,20.61
2022-08-10T14:04:18.871Z,20.42
2022-08-10T14:06:51.449Z,20.33
2022-08-10T14:09:26.998Z,20.42
2022-08-10T14:11:55.071Z,20.30
2022-08-10T14:14:22.968Z,20.55
2022-08-10T14:16:50.880Z,20.40
2022-08-10T14:19:21.016Z,20.33
2022-08-10T14:21:49.943Z,20.24
2022-08-10T14:24:21.852Z,21.00
2022-08-10T14:26:50.008Z,20.55
2022-08-10T14:29:19.097Z,20.88
2022-08-10T14:32:01.854Z,21.11
2022-08-10T14:36:08.398Z,20.52
2022-08-10T14:37:23.893Z,20.80
2022-08-10T14:39:53.698Z,20.87
2022-08-10T14:42:27.757Z,20.84
2022-08-10T14:44:58.272Z,20.65
2022-08-10T14:47:51.592Z,20.21
2022-08-10T14:50:32.509Z,20.19
2022-08-10T14:53:01.407Z,20.50
2022-08-10T14:55:31.020Z,20.39
2022-08-10T14:58:21.270Z,20.15
2022-08-10T15:00:49.177Z,20.29
2022-08-10T15:03:59.444Z,20.94
2022-08-10T15:06:17.208Z,20.70
2022-08-10T15:08:47.020Z,20.13
2022-08-10T15:12:15.160Z,20.29
2022-08-10T15:14:15.237Z,20.89
2022-08-10T15:16:53.567Z,20.17
2022-08-10T15:20:01.183Z,20.14
2022-08-10T15:22:35.750Z,20.01
2022-08-10T15:25:04.892Z,20.45
2022-08-10T15:27:53.522Z,20.38
2022-08-10T15:30:30.562Z,21.01
2022-08-10T15:33:20.882Z,20.68
2022-08-10T15:36:23.677Z,20.70
2022-08-10T15:38:58.978Z,20.66
2022-08-10T15:41:57.704Z,20.01
2022-08-10T15:44:24.418Z,20.86
2022-08-10T15:46:54.973Z,20.62
2022-08-10T15:49:26.760Z,20.26
2022-08-10T15:51:58.483Z,20.72
2022-08-10T15:54:34.413Z,20.89
2022-08-10T15:57:03.766Z,21.05
2022-08-10T15:59:33.092Z,20.94
2022-08-10T16:02:13.111Z,21.11
2022-08-10T16:04:48.691Z,21.28
2022-08-10T16:07:19.304Z,20.99
2022-08-10T16:10:23.312Z,21.27
2022-08-10T16:12:42.104Z,21.20
2022-08-10T16:15:12.789Z,20.98
2022-08-10T16:17:55.558Z,20.63
2022-08-10T16:20:33.970Z,20.86
2022-08-10T16:23:22.598Z,21.14
2022-08-10T16:25:58.138Z,20.87
2022-08-10T16:28:31.457Z,21.04
2022-08-10T16:30:59.735Z,20.59
2022-08-10T16:33:54.287Z,21.28
2022-08-10T16:36:18.571Z,20.86
2022-08-10T16:38:48.022Z,21.48
2022-08-10T16:42:01.975Z,21.08
2022-08-10T16:44:06.023Z,21.14
2022-08-10T16:46:34.166Z,21.73
2022-08-10T16:49:02.063Z,21.28
2022-08-10T16:51:30.047Z,21.67
2022-08-10T16:53:57.959Z,21.58
2022-08-10T16:56:29.708Z,21.32
2022-08-10T16:58:57.955Z,21.31
2022-08-10T17:01:27.054Z,21.84
2022-08-10T17:04:06.254Z,22.10
2022-08-10T17:06:39.087Z,21.46
2022-08-10T17:09:08.376Z,21.97
2022-08-10T17:11:50.781Z,21.66
2022-08-10T17:14:18.776Z,22.45
2022-08-10T17:16:47.171Z,21.74
2022-08-10T17:19:15.721Z,22.23
2022-08-10T17:21:56.733Z,22.05
2022-08-10T17:24:28.012Z,22.08
2022-08-10T17:26:59.229Z,22.53
2022-08-10T17:29:58.252Z,22.81
2022-08-10T17:32:25.631Z,22.80
2022-08-10T17:34:57.203Z,23.09
2022-08-10T17:37:27.460Z,22.97
2022-08-10T17:39:58.153Z,23.16
2022-08-10T17:42:27.615Z,22.84
2022-08-10T17:44:55.784Z,23.07
2022-08-10T17:47:27.444Z,22.87
2022-08-10T17:49:57.339Z,23.52
2022-08-10T17:52:27.440Z,23.21
2022-08-10T17:54:56.513Z,23.27
2022-08-10T17:57:24.803Z,23.55
2022-08-10T17:59:54.332Z,23.39
2022-08-10T18:02:24.328Z,23.86
2022-08-10T18:04:53.588Z,23.33
2022-08-10T18:07:23.590Z,23.41
2022-08-10T18:09:52.994Z,24.04
2022-08-10T18:12:32.501Z,23.72
2022-08-10T18:15:08.484Z,23.83
2022-08-10T18:17:41.092Z,23.67
2022-08-10T18:20:11.037Z,23.76
2022-08-10T18:22:43.759Z,23.94
2022-08-10T18:25:18.263Z,23.91
2022-08-10T18:28:04.057Z,24.06
2022-08-10T18:30:36.529Z,23.86
2022-08-10T18:33:05.293Z,24.29
2022-08-10T18:35:34.299Z,24.26
2022-08-10T18:38:03.216Z,24.47
2022-08-10T18:40:35.585Z,24.73
2022-08-10T18:43:08.550Z,24.71
2022-08-10T18:45:55.362Z,25.09
2022-08-10T18:48:25.064Z,24.95
2022-08-10T18:50:54.488Z,24.64
2022-08-10T18:53:26.656Z,24.97
2022-08-10T18:56:09.106Z,25.04
2022-08-10T18:58:52.582Z,24.89
2022-08-10T19:01:42.183Z,24.92
2022-08-10T19:04:18.948Z,25.12
2022-08-10T19:07:04.961Z,25.71
2022-08-10T19:09:48.331Z,25.50
2022-08-10T19:12:33.180Z,25.48
2022-08-10T19:15:05.970Z,25.94
2022-08-10T19:18:03.820Z,26.10
2022-08-10T19:20:33.665Z,25.94
2022-08-10T19:23:15.247Z,25.93
2022-08-10T19:26:17.111Z,25.91
2022-08-10T19:28:39.329Z,26.54
2022-08-10T19:31:11.612Z,26.15
2022-08-10T19:33:52.951Z,26.38
2022-08-10T19:36:44.807Z,26.24
2022-08-10T19:39:18.640Z,26.74
2022-08-10T19:41:54.232Z,26.81
2022-08-10T19:44:26.979Z,27.01
2022-08-10T19:46:57.273Z,26.48
2022-08-10T19:49:32.485Z,27.32
2022-08-10T19:52:11.811Z,26.94
2022-08-10T19:54:44.463Z,27.70
2022-08-10T19:57:13.911Z,27.79
2022-08-10T20:00:02.062Z,27.96
2022-08-10T20:02:41.344Z,28.03
2022-08-10T20:05:13.093Z,27.99
2022-08-10T20:07:44.276Z,28.23
2022-08-10T20:10:14.560Z,28.48
2022-08-10T20:12:45.693Z,28.34
2022-08-10T20:15:22.707Z,28.50
2022-08-10T20:17:56.316Z,28.45
2022-08-10T20:20:31.772Z,28.40
2022-08-10T20:23:05.090Z,28.32
2022-08-10T20:25:33.078Z,28.89
2022-08-10T20:28:05.266Z,28.87
2022-08-10T20:30:34.343Z,28.81
2022-08-10T20:33:09.449Z,29.45
2022-08-10T20:35:47.534Z,29.23
2022-08-10T20:38:18.547Z,29.25
2022-08-10T20:40:57.232Z,29.57
2022-08-10T20:43:27.492Z,30.10
2022-08-10T20:46:08.519Z,30.17
2022-08-10T20:48:39.420Z,29.94
2022-08-10T20:51:10.311Z,29.95
2022-08-10T20:53:43.603Z,30.39
2022-08-10T20:56:16.145Z,30.37
2022-08-10T20:59:09.175Z,30.49
2022-08-10T21:02:06.749Z,30.22
2022-08-10T21:04:47.947Z,30.60
2022-08-10T21:07:57.765Z,31.05
2022-08-10T21:10:19.788Z,30.86
2022-08-10T21:12:57.332Z,31.30
2022-08-10T21:15:29.736Z,31.33
2022-08-10T21:18:10.232Z,31.15
2022-08-10T21:20:47.131Z,31.56
2022-08-10T21:23:17.013Z,31.51
2022-08-10T21:25:47.806Z,31.52
2022-08-10T21:28:37.735Z,31.33
2022-08-10T21:31:16.146Z,31.69
2022-08-10T21:34:00.387Z,31.94
2022-08-10T21:36:30.614Z,32.26
2022-08-10T21:39:09.901Z,32.15
2022-08-10T21:42:00.276Z,32.58
2022-08-10T21:44:53.121Z,32.40
2022-08-10T21:48:06.876Z,32.54
2022-08-10T21:50:56.102Z,32.71
2022-08-10T21:53:45.191Z,32.84
2022-08-10T21:56:37.007Z,33.07
2022-08-10T21:59:24.247Z,32.79
2022-08-10T22:02:11.021Z,33.02
2022-08-10T22:04:57.004Z,33.14
2022-08-10T22:07:42.562Z,33.16
2022-08-10T22:10:28.990Z,33.38
2022-08-10T22:13:17.901Z,33.56
2022-08-10T22:16:11.002Z,33.71
2022-08-10T22:19:01.449Z,34.06
2022-08-10T22:21:55.959Z,33.84
2022-08-10T22:24:45.658Z,33.76
2022-08-10T22:27:46.381Z,34.20
2022-08-10T22:30:35.944Z,33.68
2022-08-10T22:33:29.545Z,34.00
2022-08-10T22:36:26.823Z,34.42
2022-08-10T22:40:05.614Z,34.11
2022-08-10T22:42:58.239Z,34.21
2022-08-10T22:45:42.767Z,34.43
2022-08-10T22:48:28.226Z,34.17
2022-08-10T22:50:57.443Z,34.52
2022-08-10T22:53:49.728Z,34.36
2022-08-10T22:56:37.698Z,34.48
2022-08-10T22:59:06.233Z,35.03
2022-08-10T23:04:03.411Z,35.01
2022-08-10T23:06:31.352Z,34.75
2022-08-10T23:09:01.226Z,35.15
2022-08-10T23:11:32.297Z,35.04
2022-08-10T23:14:02.249Z,35.41
2022-08-10T23:16:48.857Z,35.54
2022-08-10T23:19:18.955Z,35.61
2022-08-10T23:22:03.712Z,35.45
2022-08-10T23:24:36.286Z,35.72
2022-08-10T23:27:10.305Z,35.46
2022-08-10T23:29:44.718Z,35.78
2022-08-10T23:32:30.904Z,35.77
2022-08-10T23:36:30.567Z,36.08
2022-08-10T23:37:49.959Z,35.64
2022-08-10T23:40:18.961Z,35.95
2022-08-10T23:42:48.863Z,35.80
2022-08-10T23:45:18.346Z,36.29
2022-08-10T23:47:47.264Z,36.65
2022-08-10T23:50:17.955Z,36.02
2022-08-10T23:52:51.243Z,36.10
2022-08-10T23:55:23.192Z,36.44
2022-08-10T23:57:54.172Z,36.51
